Fort Mohave, Arizona
Current Conditions -  °F | °C
As of 3:35 PM on Monday 22 Dec 2014 (Local Time) from KIFP Reporting Station
Clear Clear  
Wind Chill: 72°   Ceiling: Unl
Heat Index: 72°   Visibility: 10mi
Dew Point: 43°   Wind: 7mph
Humidity: 35%   Direction: 340°NNW
Pressure: 29.93"   Gusts: NA
Location:  35.01°N, 114.58°W
Report Text: KIFP 222235Z AUTO 34006KT 10SM CLR 22/06 A2993 RMK AO2
Loading
Personal Weather Stations






























Interactive Weather Map New forecast layout! Learn more

10-Day Weather Forecast

Advertisements
Track Severe Weather on mobile